Hovedside
METAR-TAF:

METAR-TAF

Lufthavner :

Sandnessjøen lufthavn. Stokka

Sandnessjøen, Norge

breddegrad: 65-58N, lengdegrad: 012-28E, høyde over havet: 1 m

Gjeldene værobservasjon

Denne rapporten ble laget for 27 minutter siden, klokken 08:50 UTC
Vind 3 kt fra Sør-sørøst, skiftende mellom Øst og Sørvest
Temperatur 3°C
Luftfuktighet 56%
Trykk 998 hPa
Sikt 10 km eller mer
Få skyer i en høyde av 4000 ft

METAR: ENST 010850Z 15003KT 090V230 9999 FEW040 03/M05 Q0998 RMK WIND 300FT 14004KT

Tid: 11:17 (09:17 UTC)


TAF: fraværende

Værobservasjoner og værvarsel for over 4000 flyplasser (METAR- og TAF-rapporter).

Tilgjengelige stasjoner er representert av de røde og gule prikkene på kartet.

Hold musepekeren over prikken for å se navnet på stasjonen.

Klikk så for å se værobservasjoner og -varsler.

For å forandre kartet kan du klikke på den grønne knappen med svart kryss for å zoome inn, på den grønne knappen med strek for å zoome ut, eller på de grønne pilene for å se tilstøtende kart.


METAR-TAF: